AMS weather

Amsterdam Airport Schiphol
Amsterdam, Noord-Holland, Netherlands

Public forecast

Using degrees Celsius for public forecast. Weather courtesy of forecast.io.

METAR (pilot weather report)

Retrieved 2017/03/28 13:25 UTC (26 minutes ago):

EHAM 281325Z 26011KT 210V310 CAVOK 19/06 Q1020 NOSIG

TAF (pilot weather forecast)

Retrieved 2017/03/28 12:27 UTC (1 hour ago):

TAF TAF EHAM 281102Z 2812/2918 25012KT CAVOK BECMG 2902/2905 22007KT BKN030 PROB40 TEMPO 2904/2909 7000 -RADZ SCT012 BKN018 BECMG 2908/2911 25016KT